createdAt,value
2023-03-04T00:02:01.784Z,3.20
2023-03-04T00:06:53.880Z,3.40
2023-03-04T00:11:45.925Z,3.30
2023-03-04T00:16:38.095Z,3.30
2023-03-04T00:21:30.107Z,3.30
2023-03-04T00:26:22.743Z,3.40
2023-03-04T00:31:15.423Z,3.40
2023-03-04T00:36:07.941Z,3.40
2023-03-04T00:40:59.881Z,3.40
2023-03-04T00:45:52.071Z,3.40
2023-03-04T00:50:44.419Z,3.40
2023-03-04T00:55:36.712Z,3.40
2023-03-04T01:00:29.064Z,3.40
2023-03-04T01:05:22.716Z,3.40
2023-03-04T01:10:15.763Z,3.50
2023-03-04T01:15:09.438Z,3.50
2023-03-04T01:20:01.499Z,3.50
2023-03-04T01:24:53.504Z,3.50
2023-03-04T01:29:45.479Z,3.50
2023-03-04T01:34:37.517Z,3.40
2023-03-04T01:39:29.778Z,3.50
2023-03-04T01:44:22.109Z,3.50
2023-03-04T01:49:15.956Z,3.50
2023-03-04T01:54:09.554Z,3.50
2023-03-04T01:59:12.391Z,3.40
2023-03-04T02:04:05.356Z,3.40
2023-03-04T02:10:10.273Z,3.50
2023-03-04T02:15:02.517Z,3.40
2023-03-04T02:20:46.978Z,3.50
2023-03-04T02:26:03.178Z,3.40
2023-03-04T02:30:55.634Z,3.50
2023-03-04T02:35:49.207Z,3.50
2023-03-04T02:40:46.482Z,3.50
2023-03-04T02:45:39.812Z,3.40
2023-03-04T02:50:37.861Z,3.50
2023-03-04T02:55:30.694Z,3.50
2023-03-04T03:00:23.015Z,3.50
2023-03-04T03:05:15.730Z,3.50
2023-03-04T03:10:08.823Z,3.40
2023-03-04T03:15:01.968Z,3.40
2023-03-04T03:19:54.149Z,3.40
2023-03-04T03:24:46.483Z,3.50
2023-03-04T03:29:38.465Z,3.40
2023-03-04T03:34:32.978Z,3.40
2023-03-04T03:39:25.079Z,3.40
2023-03-04T03:44:17.221Z,3.40
2023-03-04T03:49:09.205Z,3.40
2023-03-04T03:54:01.407Z,3.40
2023-03-04T03:58:53.396Z,3.40
2023-03-04T04:03:45.528Z,3.40
2023-03-04T04:08:37.646Z,3.40
2023-03-04T04:13:29.876Z,3.40
2023-03-04T04:18:21.842Z,3.40
2023-03-04T04:23:13.829Z,3.50
2023-03-04T04:28:06.170Z,3.60
2023-03-04T04:33:01.619Z,3.50
2023-03-04T04:37:53.857Z,3.50
2023-03-04T04:42:45.915Z,3.60
2023-03-04T04:47:37.963Z,3.50
2023-03-04T04:52:30.236Z,3.60
2023-03-04T04:57:22.720Z,3.50
2023-03-04T05:02:14.776Z,3.60
2023-03-04T05:07:06.848Z,3.60
2023-03-04T05:11:58.961Z,3.60
2023-03-04T05:16:53.045Z,3.60
2023-03-04T05:21:45.174Z,3.50
2023-03-04T05:26:37.170Z,3.60
2023-03-04T05:31:29.367Z,3.50
2023-03-04T05:36:21.977Z,3.60
2023-03-04T05:41:14.066Z,3.60
2023-03-04T05:46:06.169Z,3.60
2023-03-04T05:51:00.332Z,3.60
2023-03-04T05:55:52.916Z,3.60
2023-03-04T06:00:45.180Z,3.70
2023-03-04T06:05:37.238Z,3.70
2023-03-04T06:10:29.524Z,3.70
2023-03-04T06:15:21.567Z,3.80
2023-03-04T06:20:13.695Z,3.80
2023-03-04T06:25:06.269Z,3.80
2023-03-04T06:29:58.373Z,3.90
2023-03-04T06:34:50.392Z,4.00
2023-03-04T06:46:33.031Z,4.10
2023-03-04T06:51:26.515Z,4.10
2023-03-04T06:56:18.578Z,4.10
2023-03-04T07:01:26.132Z,4.20
2023-03-04T07:06:20.815Z,4.20
2023-03-04T07:11:13.182Z,4.30
2023-03-04T07:16:07.174Z,4.30
2023-03-04T07:20:59.424Z,4.40
2023-03-04T07:25:51.696Z,4.50
2023-03-04T07:30:44.088Z,4.60
2023-03-04T07:35:36.143Z,4.60
2023-03-04T07:40:28.215Z,4.70
2023-03-04T07:45:21.033Z,4.80
2023-03-04T07:50:14.158Z,4.80
2023-03-04T07:55:06.998Z,4.80
2023-03-04T07:59:59.043Z,5.00
2023-03-04T08:04:51.083Z,5.00
2023-03-04T08:09:43.416Z,5.10
2023-03-04T08:14:35.753Z,5.30
2023-03-04T08:19:27.916Z,5.50
2023-03-04T08:24:20.111Z,5.70
2023-03-04T08:29:16.155Z,5.80
2023-03-04T08:34:10.236Z,5.80
2023-03-04T08:39:03.909Z,5.80
2023-03-04T08:43:55.930Z,5.80
2023-03-04T08:48:48.088Z,6.00
2023-03-04T08:53:40.881Z,6.00
2023-03-04T08:58:34.129Z,6.00
2023-03-04T09:03:26.632Z,6.00
2023-03-04T09:08:18.797Z,5.90
2023-03-04T09:13:11.854Z,6.00
2023-03-04T09:18:05.291Z,5.90
2023-03-04T09:22:57.415Z,6.00
2023-03-04T09:27:49.386Z,6.00
2023-03-04T09:32:41.547Z,6.00
2023-03-04T09:37:33.980Z,6.10
2023-03-04T09:42:36.427Z,6.20
2023-03-04T09:47:29.465Z,6.20
2023-03-04T09:52:21.524Z,6.20
2023-03-04T09:57:25.407Z,6.30
2023-03-04T10:02:29.493Z,6.40
2023-03-04T10:07:26.887Z,6.50
2023-03-04T10:12:27.021Z,6.60
2023-03-04T10:17:29.302Z,6.80
2023-03-04T10:22:33.358Z,6.90
2023-03-04T10:27:26.601Z,6.90
2023-03-04T10:32:20.833Z,6.80
2023-03-04T10:37:14.251Z,6.70
2023-03-04T10:42:15.681Z,6.70
2023-03-04T10:47:11.720Z,6.90
2023-03-04T10:52:27.147Z,6.90
2023-03-04T10:57:33.966Z,6.90
2023-03-04T11:02:27.724Z,6.90
2023-03-04T11:07:21.720Z,6.80
2023-03-04T11:12:16.746Z,6.70
2023-03-04T11:17:27.558Z,6.80
2023-03-04T11:22:22.524Z,6.70
2023-03-04T11:27:50.883Z,6.80
2023-03-04T11:32:48.013Z,7.20
2023-03-04T11:38:12.349Z,7.50
2023-03-04T11:43:25.355Z,7.60
2023-03-04T11:48:25.851Z,7.70
2023-03-04T11:53:52.511Z,7.60
2023-03-04T11:58:50.885Z,7.30
2023-03-04T12:03:56.635Z,7.20
2023-03-04T12:09:00.791Z,7.10
2023-03-04T12:13:57.777Z,7.10
2023-03-04T12:19:16.253Z,7.20
2023-03-04T12:24:34.062Z,7.50
2023-03-04T12:29:37.848Z,7.60
2023-03-04T12:34:32.615Z,7.80
2023-03-04T12:39:33.145Z,7.80
2023-03-04T12:44:25.218Z,7.80
2023-03-04T12:49:33.456Z,7.80
2023-03-04T12:54:37.241Z,8.00
2023-03-04T12:59:35.360Z,7.90
2023-03-04T13:04:56.014Z,7.90
2023-03-04T13:10:01.473Z,7.90
2023-03-04T13:15:08.821Z,8.00
2023-03-04T13:20:34.974Z,8.10
2023-03-04T13:25:31.476Z,8.10
2023-03-04T13:30:32.951Z,8.00
2023-03-04T13:35:49.817Z,7.80
2023-03-04T13:40:41.957Z,7.70
2023-03-04T13:45:37.447Z,7.80
2023-03-04T13:50:48.385Z,8.10
2023-03-04T13:55:44.135Z,8.50
2023-03-04T14:00:36.706Z,8.70
2023-03-04T14:05:28.856Z,8.90
2023-03-04T14:10:24.747Z,8.90
2023-03-04T14:15:24.598Z,9.00
2023-03-04T14:20:41.546Z,8.90
2023-03-04T14:25:36.776Z,8.80
2023-03-04T14:30:42.308Z,8.50
2023-03-04T14:35:36.642Z,8.50
2023-03-04T14:40:50.685Z,8.50
2023-03-04T14:45:44.960Z,8.50
2023-03-04T14:50:37.834Z,8.50
2023-03-04T14:55:29.929Z,8.60
2023-03-04T15:00:21.883Z,8.50
2023-03-04T15:05:30.544Z,8.50
2023-03-04T15:10:30.484Z,8.50
2023-03-04T15:15:34.552Z,8.50
2023-03-04T15:20:32.396Z,8.40
2023-03-04T15:25:24.521Z,8.40
2023-03-04T15:30:21.526Z,8.40
2023-03-04T15:35:15.516Z,8.30
2023-03-04T15:40:30.278Z,8.20
2023-03-04T15:45:23.991Z,8.00
2023-03-04T15:50:17.391Z,7.90
2023-03-04T15:55:22.158Z,7.70
2023-03-04T16:00:17.528Z,7.60
2023-03-04T16:05:10.803Z,7.50
2023-03-04T16:10:08.076Z,7.40
2023-03-04T16:15:01.377Z,7.30
2023-03-04T16:19:54.918Z,7.10
2023-03-04T16:24:47.392Z,7.10
2023-03-04T16:29:39.999Z,7.00
2023-03-04T16:34:32.083Z,6.90
2023-03-04T16:39:28.238Z,6.80
2023-03-04T16:44:20.532Z,6.80
2023-03-04T16:49:12.503Z,6.70
2023-03-04T16:54:04.577Z,6.70
2023-03-04T16:58:56.641Z,6.70
2023-03-04T17:03:48.776Z,6.70
2023-03-04T17:08:41.271Z,6.60
2023-03-04T17:13:33.408Z,6.60
2023-03-04T17:18:25.390Z,6.60
2023-03-04T17:23:17.394Z,6.50
2023-03-04T17:28:09.412Z,6.50
2023-03-04T17:33:01.390Z,6.40
2023-03-04T17:37:53.415Z,6.30
2023-03-04T17:42:45.505Z,6.30
2023-03-04T17:47:38.187Z,6.20
2023-03-04T17:52:30.150Z,6.20
2023-03-04T17:57:22.136Z,6.10
2023-03-04T18:02:15.998Z,6.10
2023-03-04T18:07:08.097Z,6.00
2023-03-04T18:12:00.468Z,6.10
2023-03-04T18:16:52.463Z,6.10
2023-03-04T18:21:44.522Z,6.00
2023-03-04T18:26:36.636Z,5.90
2023-03-04T18:31:33.396Z,6.00
2023-03-04T18:36:25.609Z,5.90
2023-03-04T18:41:17.774Z,6.00
2023-03-04T18:46:36.893Z,5.90
2023-03-04T18:51:29.423Z,5.90
2023-03-04T18:56:52.948Z,5.80
2023-03-04T19:01:45.856Z,5.80
2023-03-04T19:06:38.002Z,5.80
2023-03-04T19:11:31.661Z,5.80
2023-03-04T19:16:24.574Z,5.80
2023-03-04T19:21:16.985Z,5.80
2023-03-04T19:26:09.356Z,5.70
2023-03-04T19:31:08.527Z,5.70
2023-03-04T19:36:02.962Z,5.60
2023-03-04T19:40:56.173Z,5.70
2023-03-04T19:45:55.606Z,5.60
2023-03-04T19:50:47.778Z,5.60
2023-03-04T19:55:39.858Z,5.60
2023-03-04T20:00:32.091Z,5.50
2023-03-04T20:05:24.129Z,5.60
2023-03-04T20:10:16.469Z,5.50
2023-03-04T20:15:09.265Z,5.50
2023-03-04T20:20:01.237Z,5.40
2023-03-04T20:24:54.905Z,5.50
2023-03-04T20:29:48.972Z,5.50
2023-03-04T20:34:41.020Z,5.50
2023-03-04T20:39:35.428Z,5.50
2023-03-04T20:44:28.035Z,5.40
2023-03-04T20:49:26.188Z,5.30
2023-03-04T20:54:18.268Z,5.30
2023-03-04T20:59:11.598Z,5.20
2023-03-04T21:04:04.654Z,5.20
2023-03-04T21:09:00.475Z,5.20
2023-03-04T21:13:57.817Z,5.20
2023-03-04T21:18:50.022Z,5.20
2023-03-04T21:23:42.377Z,5.20
2023-03-04T21:28:34.718Z,5.10
2023-03-04T21:33:32.629Z,5.10
2023-03-04T21:38:24.725Z,5.10
2023-03-04T21:43:22.532Z,5.00
2023-03-04T21:48:14.470Z,5.00
2023-03-04T21:53:06.734Z,5.10
2023-03-04T21:57:58.875Z,5.00
2023-03-04T22:02:50.908Z,5.00
2023-03-04T22:07:42.948Z,5.00
2023-03-04T22:12:34.926Z,5.10
2023-03-04T22:17:27.068Z,5.00
2023-03-04T22:22:19.169Z,5.00
2023-03-04T22:27:11.256Z,5.00
2023-03-04T22:32:03.639Z,5.00
2023-03-04T22:36:55.671Z,5.00
2023-03-04T22:41:48.156Z,5.00
2023-03-04T22:46:40.347Z,5.00
2023-03-04T22:51:33.010Z,5.00
2023-03-04T22:56:25.261Z,5.00
2023-03-04T23:01:18.430Z,5.00
2023-03-04T23:06:15.758Z,5.00
2023-03-04T23:11:15.126Z,4.90
2023-03-04T23:16:10.359Z,4.90
2023-03-04T23:21:08.259Z,4.90
2023-03-04T23:26:00.483Z,4.90
2023-03-04T23:30:52.558Z,4.80
2023-03-04T23:35:45.403Z,4.90
2023-03-04T23:40:37.536Z,4.80
2023-03-04T23:45:29.584Z,4.80
2023-03-04T23:50:21.629Z,4.80
2023-03-04T23:55:17.119Z,4.70
